createdAt,value
2022-11-30T00:01:11.879Z,77.84
2022-11-30T00:03:38.455Z,77.23
2022-11-30T00:06:10.122Z,77.32
2022-11-30T00:08:37.177Z,77.46
2022-11-30T00:11:13.823Z,77.11
2022-11-30T00:13:40.966Z,77.27
2022-11-30T00:16:07.682Z,76.94
2022-11-30T00:18:34.712Z,76.52
2022-11-30T00:21:02.528Z,76.96
2022-11-30T00:23:37.997Z,76.96
2022-11-30T00:26:06.303Z,76.33
2022-11-30T00:28:34.007Z,76.62
2022-11-30T00:31:02.891Z,76.48
2022-11-30T00:33:32.501Z,76.81
2022-11-30T00:36:01.387Z,76.82
2022-11-30T00:38:28.488Z,76.29
2022-11-30T00:40:56.570Z,76.62
2022-11-30T00:43:23.329Z,76.94
2022-11-30T00:45:49.960Z,76.05
2022-11-30T00:48:16.503Z,76.48
2022-11-30T00:50:43.198Z,76.12
2022-11-30T00:53:09.699Z,75.82
2022-11-30T00:55:36.237Z,75.76
2022-11-30T00:58:02.854Z,76.90
2022-11-30T01:00:29.593Z,76.06
2022-11-30T01:02:57.791Z,76.15
2022-11-30T01:05:24.289Z,76.58
2022-11-30T01:07:51.085Z,76.10
2022-11-30T01:10:18.105Z,76.02
2022-11-30T01:12:44.607Z,76.58
2022-11-30T01:15:11.611Z,76.52
2022-11-30T01:17:38.092Z,76.13
2022-11-30T01:20:08.093Z,76.65
2022-11-30T01:22:35.122Z,76.59
2022-11-30T01:25:01.839Z,75.98
2022-11-30T01:27:28.368Z,76.81
2022-11-30T01:29:54.949Z,76.73
2022-11-30T01:32:21.568Z,76.32
2022-11-30T01:34:48.250Z,76.83
2022-11-30T01:37:14.933Z,77.34
2022-11-30T01:39:41.502Z,77.16
2022-11-30T01:42:14.901Z,76.44
2022-11-30T01:44:54.352Z,76.26
2022-11-30T01:47:29.265Z,77.12
2022-11-30T01:50:02.698Z,76.62
2022-11-30T01:52:35.366Z,76.82
2022-11-30T01:55:29.727Z,76.39
2022-11-30T01:58:01.409Z,76.91
2022-11-30T02:00:27.945Z,77.24
2022-11-30T02:03:06.988Z,76.95
2022-11-30T02:05:36.580Z,77.32
2022-11-30T02:08:03.459Z,77.62
2022-11-30T02:10:34.417Z,77.05
2022-11-30T02:13:25.766Z,77.80
2022-11-30T02:16:04.440Z,77.19
2022-11-30T02:19:17.479Z,78.02
2022-11-30T02:22:06.933Z,76.75
2022-11-30T02:24:59.179Z,77.35
2022-11-30T02:27:37.749Z,76.19
2022-11-30T02:30:19.893Z,76.61
2022-11-30T02:33:11.229Z,77.42
2022-11-30T02:35:42.538Z,77.43
2022-11-30T02:38:11.675Z,76.81
2022-11-30T02:40:38.277Z,77.61
2022-11-30T02:43:06.607Z,77.82
2022-11-30T02:45:56.665Z,77.36
2022-11-30T02:48:42.597Z,77.10
2022-11-30T02:51:12.912Z,76.72
2022-11-30T02:53:39.515Z,77.53
2022-11-30T02:56:06.269Z,77.07
2022-11-30T02:58:32.876Z,77.62
2022-11-30T03:01:03.360Z,77.11
2022-11-30T03:03:29.909Z,77.86
2022-11-30T03:05:56.385Z,78.21
2022-11-30T03:08:22.943Z,78.25
2022-11-30T03:10:49.459Z,78.27
2022-11-30T03:13:16.014Z,78.37
2022-11-30T03:15:42.520Z,78.09
2022-11-30T03:18:09.092Z,78.66
2022-11-30T03:20:39.951Z,78.98
2022-11-30T03:23:06.430Z,78.59
2022-11-30T03:25:32.973Z,78.21
2022-11-30T03:28:01.154Z,78.71
2022-11-30T03:30:30.023Z,78.60
2022-11-30T03:33:01.288Z,79.36
2022-11-30T03:35:27.918Z,79.26
2022-11-30T03:37:54.482Z,79.14
2022-11-30T03:40:27.793Z,79.24
2022-11-30T03:42:54.267Z,79.04
2022-11-30T03:45:20.750Z,79.36
2022-11-30T03:47:47.249Z,79.25
2022-11-30T03:50:13.755Z,79.59
2022-11-30T03:52:40.448Z,78.86
2022-11-30T03:55:08.279Z,79.48
2022-11-30T03:57:34.906Z,79.05
2022-11-30T04:00:01.626Z,79.01
2022-11-30T04:02:28.538Z,80.19
2022-11-30T04:04:55.134Z,80.19
2022-11-30T04:07:21.676Z,80.60
2022-11-30T04:09:48.322Z,80.44
2022-11-30T04:12:14.876Z,79.86
2022-11-30T04:14:41.486Z,80.29
2022-11-30T04:17:08.072Z,81.00
2022-11-30T04:19:34.671Z,81.51
2022-11-30T04:22:01.188Z,81.83
2022-11-30T04:24:27.729Z,81.63
2022-11-30T04:26:54.225Z,81.43
2022-11-30T04:29:20.743Z,81.82
2022-11-30T04:31:47.364Z,81.86
2022-11-30T04:34:13.922Z,82.93
2022-11-30T04:36:40.454Z,83.18
2022-11-30T04:39:07.184Z,83.52
2022-11-30T04:41:33.725Z,83.28
2022-11-30T04:44:00.239Z,82.53
2022-11-30T04:46:26.824Z,82.75
2022-11-30T04:48:53.361Z,82.64
2022-11-30T04:51:19.835Z,82.47
2022-11-30T04:53:46.330Z,82.92
2022-11-30T04:56:12.844Z,83.13
2022-11-30T04:58:39.929Z,82.12
2022-11-30T05:01:07.307Z,82.88
2022-11-30T05:03:33.903Z,82.88
2022-11-30T05:06:00.500Z,83.60
2022-11-30T05:08:27.114Z,82.92
2022-11-30T05:10:54.810Z,82.94
2022-11-30T05:13:22.968Z,82.63
2022-11-30T05:15:49.922Z,83.08
2022-11-30T05:18:16.767Z,82.69
2022-11-30T05:20:48.129Z,82.97
2022-11-30T05:23:14.861Z,83.69
2022-11-30T05:25:41.375Z,84.10
2022-11-30T05:28:07.985Z,83.46
2022-11-30T05:30:34.460Z,83.28
2022-11-30T05:33:00.983Z,82.71
2022-11-30T05:35:27.481Z,82.37
2022-11-30T05:37:54.017Z,81.99
2022-11-30T05:40:20.574Z,81.95
2022-11-30T05:42:47.167Z,81.70
2022-11-30T05:45:13.716Z,81.60
2022-11-30T05:47:40.210Z,81.92
2022-11-30T05:50:07.383Z,81.75
2022-11-30T05:52:33.867Z,81.73
2022-11-30T05:55:00.391Z,81.17
2022-11-30T05:57:26.865Z,81.66
2022-11-30T05:59:53.369Z,81.93
2022-11-30T06:02:25.107Z,82.17
2022-11-30T06:04:53.184Z,82.08
2022-11-30T06:07:19.718Z,81.74
2022-11-30T06:09:46.333Z,81.64
2022-11-30T06:12:12.920Z,81.52
2022-11-30T06:14:39.378Z,81.40
2022-11-30T06:17:05.875Z,81.42
2022-11-30T06:19:32.441Z,81.32
2022-11-30T06:21:58.935Z,81.50
2022-11-30T06:24:25.448Z,82.07
2022-11-30T06:26:51.936Z,81.50
2022-11-30T06:29:18.474Z,82.16
2022-11-30T06:31:44.939Z,81.39
2022-11-30T06:34:11.444Z,81.47
2022-11-30T06:36:37.973Z,82.20
2022-11-30T06:39:04.627Z,82.60
2022-11-30T06:41:31.122Z,82.22
2022-11-30T06:43:57.651Z,83.23
2022-11-30T06:46:24.203Z,82.54
2022-11-30T06:48:53.482Z,82.46
2022-11-30T06:51:20.456Z,82.71
2022-11-30T06:53:47.279Z,81.96
2022-11-30T06:56:13.833Z,83.08
2022-11-30T06:58:41.343Z,82.73
2022-11-30T07:01:09.732Z,83.44
2022-11-30T07:03:36.980Z,82.97
2022-11-30T07:06:10.755Z,83.18
2022-11-30T07:08:37.814Z,82.96
2022-11-30T07:11:05.186Z,83.18
2022-11-30T07:13:31.786Z,82.77
2022-11-30T07:15:58.288Z,82.95
2022-11-30T07:18:31.523Z,83.39
2022-11-30T07:21:00.749Z,83.19
2022-11-30T07:23:48.448Z,83.81
2022-11-30T07:26:19.932Z,83.06
2022-11-30T07:28:46.818Z,83.12
2022-11-30T07:31:23.429Z,82.57
2022-11-30T07:33:50.955Z,82.46
2022-11-30T07:36:19.155Z,82.56
2022-11-30T07:38:46.247Z,82.48
2022-11-30T07:41:13.291Z,82.57
2022-11-30T07:43:40.661Z,82.01
2022-11-30T07:46:08.102Z,81.59
2022-11-30T07:48:35.169Z,81.45
2022-11-30T07:51:06.562Z,81.54
2022-11-30T07:53:33.152Z,81.34
2022-11-30T07:56:08.427Z,81.09
2022-11-30T07:58:35.041Z,80.86
2022-11-30T08:01:08.314Z,80.34
2022-11-30T08:03:37.242Z,80.75
2022-11-30T08:06:08.833Z,80.54
2022-11-30T08:08:39.575Z,80.60
2022-11-30T08:11:07.850Z,79.60
2022-11-30T08:13:34.497Z,79.33
2022-11-30T08:16:06.361Z,79.42
2022-11-30T08:18:32.881Z,79.06
2022-11-30T08:21:01.117Z,79.50
2022-11-30T08:23:32.348Z,78.88
2022-11-30T08:26:06.690Z,78.84
2022-11-30T08:28:37.456Z,78.83
2022-11-30T08:31:13.208Z,78.31
2022-11-30T08:33:39.743Z,77.49
2022-11-30T08:36:14.727Z,78.27
2022-11-30T08:38:43.482Z,78.37
2022-11-30T08:41:12.096Z,77.66
2022-11-30T08:43:38.911Z,78.27
2022-11-30T08:46:27.338Z,78.50
2022-11-30T08:49:12.509Z,78.19
2022-11-30T08:54:27.518Z,77.74
2022-11-30T08:56:54.062Z,77.69
2022-11-30T08:59:20.583Z,78.21
2022-11-30T09:01:47.133Z,77.87
2022-11-30T09:04:13.619Z,78.08
2022-11-30T09:06:41.863Z,78.21
2022-11-30T09:09:08.437Z,77.59
2022-11-30T09:11:35.183Z,77.45
2022-11-30T09:14:04.257Z,77.85
2022-11-30T09:16:31.287Z,78.15
2022-11-30T09:18:57.965Z,79.09
2022-11-30T09:21:25.051Z,77.86
2022-11-30T09:23:52.856Z,77.06
2022-11-30T09:26:23.794Z,77.69
2022-11-30T09:28:50.630Z,77.31
2022-11-30T09:31:19.924Z,76.98
2022-11-30T09:33:46.628Z,76.73
2022-11-30T09:36:15.685Z,76.71
2022-11-30T09:38:42.580Z,76.20
2022-11-30T09:41:21.239Z,75.81
2022-11-30T09:44:14.231Z,75.55
2022-11-30T09:47:04.554Z,75.76
2022-11-30T09:49:35.051Z,74.64
2022-11-30T09:52:05.915Z,75.01
2022-11-30T09:54:39.533Z,74.54
2022-11-30T09:57:30.411Z,74.66
2022-11-30T10:00:00.113Z,74.23
2022-11-30T10:02:32.898Z,73.69
2022-11-30T10:05:00.511Z,73.92
2022-11-30T10:07:56.464Z,73.19
2022-11-30T10:10:54.042Z,73.82
2022-11-30T10:13:29.714Z,72.74
2022-11-30T10:16:05.487Z,73.22
2022-11-30T10:18:34.971Z,72.98
2022-11-30T10:21:28.867Z,73.21
2022-11-30T10:24:16.126Z,73.18
2022-11-30T10:26:53.086Z,73.01
2022-11-30T10:29:27.033Z,73.48
2022-11-30T10:31:58.184Z,73.57
2022-11-30T10:34:32.438Z,74.74
2022-11-30T10:36:58.870Z,72.71
2022-11-30T10:39:42.770Z,72.59
2022-11-30T10:42:15.965Z,72.71
2022-11-30T10:44:59.521Z,72.25
2022-11-30T10:47:33.850Z,72.38
2022-11-30T10:50:00.755Z,72.07
2022-11-30T10:52:31.933Z,72.66
2022-11-30T10:55:04.282Z,71.76
2022-11-30T10:57:33.223Z,71.39
2022-11-30T11:00:02.522Z,71.76
2022-11-30T11:02:37.776Z,71.07
2022-11-30T11:05:27.539Z,70.35
2022-11-30T11:08:06.460Z,70.34
2022-11-30T11:10:44.959Z,70.47
2022-11-30T11:13:38.609Z,70.46
2022-11-30T11:16:08.430Z,70.39
2022-11-30T11:18:37.178Z,69.38
2022-11-30T11:21:12.722Z,70.59
2022-11-30T11:23:41.693Z,70.45
2022-11-30T11:26:20.321Z,69.23
2022-11-30T11:28:51.881Z,69.19
2022-11-30T11:31:36.847Z,70.42
2022-11-30T11:34:04.965Z,70.08
2022-11-30T11:36:34.328Z,69.44
2022-11-30T11:39:01.219Z,70.39
2022-11-30T11:41:37.387Z,70.48
2022-11-30T11:44:27.085Z,70.85
2022-11-30T11:47:01.060Z,70.52
2022-11-30T11:49:30.190Z,70.49
2022-11-30T11:52:06.559Z,70.55
2022-11-30T11:54:42.189Z,70.24
2022-11-30T11:57:10.187Z,69.92
2022-11-30T11:59:46.043Z,69.80
2022-11-30T12:02:53.888Z,70.03
2022-11-30T12:05:44.380Z,70.11
2022-11-30T12:08:34.696Z,70.62
2022-11-30T12:11:09.708Z,71.56
2022-11-30T12:13:42.049Z,70.96
2022-11-30T12:16:45.981Z,69.90
2022-11-30T12:19:21.960Z,69.62
2022-11-30T12:22:03.759Z,69.93
2022-11-30T12:24:48.786Z,70.23
2022-11-30T12:27:43.272Z,70.15
2022-11-30T12:30:22.205Z,69.68
2022-11-30T12:33:43.203Z,69.71
2022-11-30T12:36:40.895Z,70.31
2022-11-30T12:39:26.420Z,69.74
2022-11-30T12:41:57.821Z,68.63
2022-11-30T12:44:41.917Z,68.93
2022-11-30T12:47:46.513Z,69.22
2022-11-30T12:50:29.759Z,68.95
2022-11-30T12:53:08.087Z,68.62
2022-11-30T12:56:10.313Z,68.86
2022-11-30T12:58:51.976Z,68.55
2022-11-30T13:01:48.311Z,69.16
2022-11-30T13:04:50.739Z,68.79
2022-11-30T13:07:29.946Z,68.21
2022-11-30T13:10:06.641Z,67.75
2022-11-30T13:12:37.113Z,67.70
2022-11-30T13:15:15.772Z,67.34
2022-11-30T13:17:43.829Z,68.12
2022-11-30T13:20:42.054Z,67.61
2022-11-30T13:23:27.598Z,67.32
2022-11-30T13:26:08.965Z,67.26
2022-11-30T13:28:51.318Z,67.33
2022-11-30T13:31:20.958Z,69.32
2022-11-30T13:33:48.683Z,68.46
2022-11-30T13:36:45.141Z,68.87
2022-11-30T13:39:14.641Z,67.84
2022-11-30T13:41:40.976Z,68.02
2022-11-30T13:44:24.427Z,67.76
2022-11-30T13:46:53.388Z,67.87
2022-11-30T13:49:23.270Z,68.57
2022-11-30T13:52:13.563Z,68.29
2022-11-30T13:54:47.411Z,68.75
2022-11-30T13:57:29.531Z,69.36
2022-11-30T13:59:59.028Z,69.70
2022-11-30T14:02:31.932Z,70.17
2022-11-30T14:05:18.809Z,70.15
2022-11-30T14:07:46.774Z,70.31
2022-11-30T14:10:33.622Z,70.98
2022-11-30T14:13:05.330Z,70.42
2022-11-30T14:15:41.987Z,69.84
2022-11-30T14:18:08.421Z,70.91
2022-11-30T14:20:49.742Z,70.78
2022-11-30T14:23:39.693Z,70.81
2022-11-30T14:26:13.294Z,70.49
2022-11-30T14:29:01.967Z,69.72
2022-11-30T14:31:34.418Z,70.14
2022-11-30T14:34:09.042Z,70.74
2022-11-30T14:36:41.541Z,70.10
2022-11-30T14:39:36.787Z,70.16
2022-11-30T14:42:05.338Z,70.40
2022-11-30T14:44:39.136Z,70.02
2022-11-30T14:47:30.357Z,71.23
2022-11-30T14:49:58.082Z,70.44
2022-11-30T14:52:39.789Z,71.30
2022-11-30T14:55:43.677Z,71.33
2022-11-30T14:58:29.464Z,71.89
2022-11-30T15:00:57.373Z,72.95
2022-11-30T15:03:27.218Z,71.66
2022-11-30T15:05:59.971Z,71.13
2022-11-30T15:08:35.171Z,71.74
2022-11-30T15:11:07.863Z,72.26
2022-11-30T15:13:39.412Z,71.57
2022-11-30T15:16:17.249Z,72.45
2022-11-30T15:18:43.826Z,73.29
2022-11-30T15:21:20.033Z,72.22
2022-11-30T15:23:50.957Z,72.38
2022-11-30T15:26:24.389Z,71.18
2022-11-30T15:29:02.351Z,70.63
2022-11-30T15:31:36.765Z,70.95
2022-11-30T15:34:04.570Z,70.51
2022-11-30T15:36:39.250Z,70.92
2022-11-30T15:39:08.198Z,71.01
2022-11-30T15:41:36.213Z,72.14
2022-11-30T15:44:02.825Z,71.13
2022-11-30T15:46:34.168Z,70.97
2022-11-30T15:49:17.947Z,71.15
2022-11-30T15:52:27.098Z,71.35
2022-11-30T15:55:04.489Z,71.01
2022-11-30T15:57:57.120Z,71.88
2022-11-30T16:00:24.473Z,71.85
2022-11-30T16:03:10.395Z,71.38
2022-11-30T16:05:39.376Z,72.13
2022-11-30T16:08:14.927Z,71.62
2022-11-30T16:10:43.757Z,72.94
2022-11-30T16:13:15.195Z,71.99
2022-11-30T16:15:48.682Z,72.24
2022-11-30T16:18:23.917Z,71.71
2022-11-30T16:20:59.209Z,71.52
2022-11-30T16:23:26.646Z,71.80
2022-11-30T16:25:53.749Z,72.29
2022-11-30T16:28:22.209Z,72.73
2022-11-30T16:30:49.336Z,73.00
2022-11-30T16:33:25.097Z,72.25
2022-11-30T16:36:01.452Z,72.69
2022-11-30T16:38:28.739Z,72.11
2022-11-30T16:40:56.272Z,72.00
2022-11-30T16:43:23.567Z,72.04
2022-11-30T16:45:50.769Z,73.10
2022-11-30T16:48:18.306Z,73.08
2022-11-30T16:50:45.516Z,72.48
2022-11-30T16:53:16.945Z,73.04
2022-11-30T16:55:44.048Z,72.54
2022-11-30T16:58:10.634Z,72.57
2022-11-30T17:00:39.813Z,72.45
2022-11-30T17:03:16.448Z,72.88
2022-11-30T17:05:43.004Z,74.05
2022-11-30T17:08:10.578Z,73.38
2022-11-30T17:10:38.392Z,73.36
2022-11-30T17:13:05.311Z,74.07
2022-11-30T17:15:31.938Z,73.74
2022-11-30T17:17:59.363Z,72.98
2022-11-30T17:20:27.584Z,72.29
2022-11-30T17:22:54.140Z,72.33
2022-11-30T17:25:23.308Z,72.89
2022-11-30T17:27:50.774Z,72.83
2022-11-30T17:30:19.823Z,73.01
2022-11-30T17:32:46.699Z,73.55
2022-11-30T17:35:13.783Z,73.31
2022-11-30T17:37:40.484Z,73.17
2022-11-30T17:40:08.369Z,73.46
2022-11-30T17:42:34.924Z,74.41
2022-11-30T17:45:01.444Z,74.17
2022-11-30T17:47:27.927Z,73.89
2022-11-30T17:49:54.514Z,74.36
2022-11-30T17:52:21.056Z,74.13
2022-11-30T17:54:47.895Z,74.42
2022-11-30T17:57:14.640Z,74.11
2022-11-30T17:59:41.139Z,74.38
2022-11-30T18:02:11.240Z,72.40
2022-11-30T18:04:38.204Z,73.75
2022-11-30T18:07:04.698Z,74.01
2022-11-30T18:09:37.795Z,73.50
2022-11-30T18:12:07.549Z,72.68
2022-11-30T18:14:34.065Z,72.92
2022-11-30T18:17:00.604Z,74.40
2022-11-30T18:19:27.250Z,74.66
2022-11-30T18:21:55.243Z,74.89
2022-11-30T18:24:25.253Z,75.97
2022-11-30T18:26:52.607Z,76.53
2022-11-30T18:29:19.228Z,74.82
2022-11-30T18:31:48.245Z,76.16
2022-11-30T18:34:15.001Z,77.11
2022-11-30T18:36:41.474Z,78.00
2022-11-30T18:39:08.282Z,77.91
2022-11-30T18:41:34.901Z,78.49
2022-11-30T18:44:01.456Z,77.78
2022-11-30T18:46:28.125Z,79.17
2022-11-30T18:48:55.351Z,78.12
2022-11-30T18:51:24.917Z,78.83
2022-11-30T18:53:57.636Z,78.53
2022-11-30T18:56:26.088Z,78.23
2022-11-30T18:58:58.191Z,78.50
2022-11-30T19:01:26.071Z,78.31
2022-11-30T19:04:01.059Z,79.36
2022-11-30T19:06:29.827Z,79.13
2022-11-30T19:08:57.009Z,79.07
2022-11-30T19:11:23.643Z,78.99
2022-11-30T19:13:55.244Z,78.95
2022-11-30T19:16:22.207Z,79.58
2022-11-30T19:18:48.942Z,78.66
2022-11-30T19:21:17.786Z,79.52
2022-11-30T19:23:45.646Z,79.39
2022-11-30T19:26:13.719Z,79.40
2022-11-30T19:28:41.490Z,80.25
2022-11-30T19:31:19.107Z,79.82
2022-11-30T19:33:49.544Z,80.10
2022-11-30T19:36:19.411Z,79.91
2022-11-30T19:38:46.097Z,80.31
2022-11-30T19:41:15.160Z,79.52
2022-11-30T19:43:44.369Z,80.36
2022-11-30T19:46:17.358Z,80.69
2022-11-30T19:48:44.348Z,80.54
2022-11-30T19:51:18.036Z,79.25
2022-11-30T19:53:45.092Z,80.12
2022-11-30T19:56:18.275Z,79.82
2022-11-30T19:58:46.196Z,80.81
2022-11-30T20:01:19.598Z,80.95
2022-11-30T20:03:46.686Z,80.55
2022-11-30T20:06:13.461Z,80.97
2022-11-30T20:08:43.190Z,81.46
2022-11-30T20:11:12.154Z,81.33
2022-11-30T20:13:39.232Z,81.79
2022-11-30T20:16:08.185Z,82.13
2022-11-30T20:18:35.026Z,81.57
2022-11-30T20:21:19.475Z,81.09
2022-11-30T20:23:47.352Z,82.22
2022-11-30T20:26:21.394Z,82.57
2022-11-30T20:28:50.119Z,82.49
2022-11-30T20:31:18.905Z,82.43
2022-11-30T20:33:46.022Z,82.38
2022-11-30T20:36:13.919Z,82.62
2022-11-30T20:38:40.693Z,83.46
2022-11-30T20:41:11.402Z,83.39
2022-11-30T20:43:38.414Z,83.03
2022-11-30T20:46:20.425Z,83.33
2022-11-30T20:48:47.859Z,84.19
2022-11-30T20:51:36.343Z,82.84
2022-11-30T20:54:06.959Z,82.62
2022-11-30T20:56:36.615Z,81.94
2022-11-30T20:59:05.103Z,82.62
2022-11-30T21:01:32.410Z,82.45
2022-11-30T21:04:02.357Z,83.68
2022-11-30T21:06:32.100Z,83.53
2022-11-30T21:08:59.325Z,83.78
2022-11-30T21:11:27.453Z,84.21
2022-11-30T21:13:54.541Z,83.77
2022-11-30T21:16:27.773Z,83.58
2022-11-30T21:18:56.832Z,83.83
2022-11-30T21:21:25.265Z,84.26
2022-11-30T21:23:52.482Z,84.75
2022-11-30T21:26:24.676Z,84.56
2022-11-30T21:28:53.780Z,84.58
2022-11-30T21:31:21.580Z,85.77
2022-11-30T21:33:52.828Z,84.55
2022-11-30T21:36:20.097Z,85.05
2022-11-30T21:38:46.636Z,85.23
2022-11-30T21:41:13.807Z,84.79
2022-11-30T21:43:41.247Z,84.92
2022-11-30T21:46:11.494Z,84.87
2022-11-30T21:48:39.351Z,85.45
2022-11-30T21:51:11.595Z,85.15
2022-11-30T21:53:44.616Z,85.63
2022-11-30T21:56:14.780Z,85.26
2022-11-30T21:58:46.563Z,85.79
2022-11-30T22:01:18.933Z,84.95
2022-11-30T22:03:46.645Z,84.96
2022-11-30T22:06:17.607Z,84.48
2022-11-30T22:08:44.604Z,85.27
2022-11-30T22:11:13.836Z,84.99
2022-11-30T22:13:41.016Z,85.04
2022-11-30T22:16:10.821Z,85.41
2022-11-30T22:18:38.183Z,85.03
2022-11-30T22:21:15.317Z,85.49
2022-11-30T22:23:44.636Z,84.86
2022-11-30T22:26:12.292Z,85.50
2022-11-30T22:28:40.001Z,85.43
2022-11-30T22:31:08.558Z,85.44
2022-11-30T22:33:36.940Z,86.25
2022-11-30T22:36:05.556Z,85.92
2022-11-30T22:38:33.144Z,86.13
2022-11-30T22:41:11.218Z,85.90
2022-11-30T22:43:38.128Z,85.70
2022-11-30T22:46:06.097Z,85.44
2022-11-30T22:48:32.927Z,85.81
2022-11-30T22:51:10.684Z,85.68
2022-11-30T22:53:39.159Z,85.95
2022-11-30T22:56:13.007Z,86.09
2022-11-30T22:58:40.838Z,85.96
2022-11-30T23:01:27.489Z,86.06
2022-11-30T23:03:56.782Z,85.23
2022-11-30T23:06:24.644Z,84.98
2022-11-30T23:08:52.534Z,85.30
2022-11-30T23:11:23.560Z,85.37
2022-11-30T23:13:50.880Z,84.57
2022-11-30T23:16:18.400Z,84.95
2022-11-30T23:18:48.491Z,84.97
2022-11-30T23:21:23.811Z,86.32
2022-11-30T23:23:50.412Z,85.98
2022-11-30T23:26:22.894Z,85.75
2022-11-30T23:28:53.356Z,85.32
2022-11-30T23:31:33.763Z,86.24
2022-11-30T23:34:02.459Z,85.58
2022-11-30T23:36:29.036Z,86.27
2022-11-30T23:39:00.708Z,85.61
2022-11-30T23:41:27.933Z,86.09
2022-11-30T23:43:55.179Z,86.25
2022-11-30T23:46:21.808Z,86.54
2022-11-30T23:48:48.370Z,85.56
2022-11-30T23:51:15.310Z,85.48
2022-11-30T23:53:41.822Z,85.42
2022-11-30T23:56:11.952Z,86.94
2022-11-30T23:58:39.696Z,85.55
